Time;durP1;ratioP1;P1;durP2;ratioP2;P2;SDS_P1;SDS_P2;PMS_P1;PMS_P2;Temp;Humidity;BMP_temperature;BMP_pressure;BME280_temperature;BME280_humidity;BME280_pressure;Samples;Min_cycle;Max_cycle;Signal;HPM_P1;HPM_P2
2021/05/13 00:00:23;;;;;;;7.20;3.27;;;18.90;54.40;;;;;;5004317;28;20206;-46
2021/05/13 00:02:49;;;;;;;3.70;3.40;;;18.90;54.20;;;;;;5009130;28;20190;-47
2021/05/13 00:05:15;;;;;;;4.10;3.70;;;18.70;54.10;;;;;;5003357;28;20600;-48
2021/05/13 00:07:42;;;;;;;7.80;3.97;;;18.70;54.80;;;;;;5005798;28;20598;-47
2021/05/13 00:10:11;;;;;;;4.70;3.43;;;18.80;54.60;;;;;;5010602;28;20194;-47
2021/05/13 00:15:14;;;;;;;5.80;3.80;;;18.30;55.70;;;;;;5011151;28;20445;-46
2021/05/13 00:17:40;;;;;;;5.80;3.90;;;18.40;55.60;;;;;;5008148;28;20456;-44
2021/05/13 00:20:09;;;;;;;4.07;3.53;;;18.60;55.00;;;;;;5011845;28;20449;-44
2021/05/13 00:22:35;;;;;;;3.40;3.10;;;18.70;54.70;;;;;;5002959;28;20216;-46
2021/05/13 00:25:00;;;;;;;3.83;3.43;;;18.70;54.70;;;;;;5004245;28;20445;-46
2021/05/13 00:27:26;;;;;;;6.23;3.27;;;18.60;54.60;;;;;;5007266;28;20205;-45
2021/05/13 00:29:52;;;;;;;5.10;3.40;;;18.60;55.00;;;;;;5010131;28;20213;-46
2021/05/13 00:32:18;;;;;;;4.40;3.87;;;18.50;54.90;;;;;;5008985;28;20194;-48
2021/05/13 00:34:43;;;;;;;6.13;3.90;;;18.60;55.10;;;;;;5009828;28;20261;-46
2021/05/13 00:37:09;;;;;;;7.97;3.57;;;18.70;54.70;;;;;;5009578;28;20194;-47
2021/05/13 00:39:34;;;;;;;4.27;3.87;;;18.80;54.50;;;;;;5005722;28;20202;-48
2021/05/13 00:42:00;;;;;;;6.07;3.83;;;18.80;54.10;;;;;;5007061;28;20209;-45
2021/05/13 00:44:26;;;;;;;4.10;3.60;;;18.80;53.90;;;;;;5006921;28;20220;-42
2021/05/13 00:46:52;;;;;;;4.13;3.80;;;18.60;54.50;;;;;;5010831;28;20649;-43
2021/05/13 00:49:20;;;;;;;4.00;3.60;;;18.40;55.20;;;;;;5008573;28;20495;-45
2021/05/13 00:51:45;;;;;;;5.17;3.97;;;18.40;54.90;;;;;;5004706;28;20198;-44
2021/05/13 00:54:12;;;;;;;5.97;4.47;;;18.50;55.00;;;;;;5004218;28;20489;-45
2021/05/13 00:56:38;;;;;;;5.07;3.73;;;18.50;54.90;;;;;;5002510;28;20194;-43
2021/05/13 00:59:09;;;;;;;4.27;3.87;;;18.40;55.00;;;;;;5007656;28;20445;-43
2021/05/13 01:04:18;;;;;;;6.67;6.07;;;18.40;55.30;;;;;;5001428;28;20454;-44
2021/05/13 01:06:48;;;;;;;3.87;3.57;;;18.30;55.30;;;;;;5008176;28;20826;-44
2021/05/13 01:09:25;;;;;;;5.80;3.60;;;18.40;55.40;;;;;;5009712;28;20511;-44
2021/05/13 01:11:55;;;;;;;4.47;3.73;;;18.40;54.80;;;;;;5010107;28;20452;-45
2021/05/13 01:14:27;;;;;;;6.10;3.50;;;18.50;54.90;;;;;;5006224;28;20508;-43
2021/05/13 01:17:14;;;;;;;6.17;3.80;;;18.50;54.80;;;;;;5002533;28;20817;-43
2021/05/13 01:19:45;;;;;;;5.23;3.93;;;18.50;54.90;;;;;;5007379;28;20866;-44
2021/05/13 01:22:15;;;;;;;6.03;3.97;;;18.60;54.30;;;;;;5004700;28;20548;-46
2021/05/13 01:24:41;;;;;;;3.60;3.30;;;18.70;54.20;;;;;;5002097;28;20495;-43
2021/05/13 01:27:07;;;;;;;8.70;4.10;;;18.80;54.00;;;;;;5007165;28;20456;-44
2021/05/13 01:29:33;;;;;;;4.63;4.23;;;18.70;54.00;;;;;;5009885;28;20444;-44
2021/05/13 01:31:59;;;;;;;6.37;3.97;;;18.60;54.10;;;;;;5008176;28;20327;-44
2021/05/13 01:34:25;;;;;;;4.10;3.67;;;18.40;54.70;;;;;;5008565;28;20488;-43
2021/05/13 01:36:52;;;;;;;4.50;3.90;;;18.30;55.10;;;;;;4999441;28;20448;-43
2021/05/13 01:39:18;;;;;;;5.57;4.10;;;18.40;55.00;;;;;;5005705;28;20472;-44
2021/05/13 01:41:44;;;;;;;5.73;4.47;;;18.40;54.80;;;;;;5007214;28;20479;-45
2021/05/13 01:44:11;;;;;;;4.23;3.83;;;18.50;54.60;;;;;;5009850;28;20507;-44
2021/05/13 01:46:37;;;;;;;6.47;4.63;;;18.50;54.50;;;;;;5011434;28;20463;-43
2021/05/13 01:49:04;;;;;;;4.40;4.00;;;18.60;54.50;;;;;;5007875;28;20433;-43
2021/05/13 01:51:31;;;;;;;3.67;3.33;;;18.50;54.40;;;;;;5006905;28;20437;-44
2021/05/13 01:53:57;;;;;;;4.10;3.80;;;18.40;54.70;;;;;;5006174;28;20496;-45
2021/05/13 01:56:22;;;;;;;4.97;4.57;;;18.40;54.70;;;;;;5002821;28;20441;-43
2021/05/13 01:58:48;;;;;;;5.97;5.00;;;18.50;54.60;;;;;;5003028;28;20240;-44
2021/05/13 02:01:15;;;;;;;5.20;3.90;;;18.50;54.60;;;;;;5007009;28;20202;-45
2021/05/13 02:03:43;;;;;;;5.13;3.90;;;18.40;54.70;;;;;;5009575;28;20201;-43
2021/05/13 02:06:09;;;;;;;5.00;4.43;;;18.40;54.80;;;;;;5002581;28;20854;-44
2021/05/13 02:08:35;;;;;;;4.87;4.47;;;18.50;54.50;;;;;;5002544;28;20448;-46
2021/05/13 02:11:01;;;;;;;6.30;3.80;;;18.50;54.50;;;;;;5010020;28;20451;-43
2021/05/13 02:13:27;;;;;;;4.90;3.80;;;18.50;54.40;;;;;;5001736;28;20506;-45
2021/05/13 02:15:53;;;;;;;4.50;4.10;;;18.20;54.80;;;;;;5004387;28;20445;-43
2021/05/13 02:18:20;;;;;;;4.70;4.30;;;18.10;55.00;;;;;;5005196;28;20529;-44
2021/05/13 02:20:47;;;;;;;4.17;3.83;;;18.20;55.30;;;;;;5008262;28;20825;-43
2021/05/13 02:23:13;;;;;;;4.70;4.30;;;18.00;55.30;;;;;;5005938;28;20436;-44
2021/05/13 02:25:39;;;;;;;3.80;3.50;;;18.00;55.60;;;;;;4998737;28;20472;-44
2021/05/13 02:28:05;;;;;;;3.87;3.47;;;18.10;55.00;;;;;;5005392;28;20205;-44
2021/05/13 02:30:31;;;;;;;6.40;3.20;;;18.20;55.10;;;;;;5006910;28;20464;-43
2021/05/13 02:32:57;;;;;;;4.63;4.17;;;18.10;54.60;;;;;;5007099;28;20441;-45
2021/05/13 02:35:23;;;;;;;6.43;4.13;;;18.10;55.10;;;;;;4998918;28;20204;-44
2021/05/13 02:37:48;;;;;;;5.60;4.37;;;18.10;54.70;;;;;;5002685;28;20760;-44
2021/05/13 02:40:16;;;;;;;4.93;4.53;;;18.10;55.00;;;;;;5007099;28;20445;-43
2021/05/13 02:42:43;;;;;;;4.93;4.53;;;18.30;55.00;;;;;;5005146;28;20255;-43
2021/05/13 02:45:09;;;;;;;4.57;4.10;;;18.30;54.70;;;;;;5007255;28;20437;-43
2021/05/13 02:47:35;;;;;;;4.30;3.90;;;18.40;54.50;;;;;;5008213;28;20481;-43
2021/05/13 02:50:02;;;;;;;5.03;4.20;;;18.50;54.20;;;;;;5010591;28;20429;-43
2021/05/13 02:52:28;;;;;;;5.20;4.17;;;18.50;54.10;;;;;;4998849;28;20446;-44
2021/05/13 02:54:53;;;;;;;5.50;4.87;;;18.40;54.30;;;;;;5006768;28;20906;-44
2021/05/13 02:57:19;;;;;;;4.20;3.90;;;18.30;54.50;;;;;;5005372;28;20202;-43
2021/05/13 03:02:43;;;;;;;5.60;5.00;;;18.50;54.20;;;;;;4972159;28;20209;-44
2021/05/13 03:05:10;;;;;;;4.70;4.30;;;18.50;54.30;;;;;;5012354;28;20532;-43
2021/05/13 03:07:43;;;;;;;5.60;4.50;;;18.40;54.20;;;;;;5013764;28;20537;-44
2021/05/13 03:10:16;;;;;;;5.90;4.50;;;18.50;54.20;;;;;;5010593;28;20547;-44
2021/05/13 03:12:43;;;;;;;4.43;4.03;;;18.60;53.90;;;;;;5007812;28;20448;-44
2021/05/13 03:15:09;;;;;;;4.03;3.63;;;18.60;54.10;;;;;;5010337;28;20463;-45
2021/05/13 03:17:34;;;;;;;5.00;4.60;;;18.60;53.80;;;;;;5009301;28;22131;-43
2021/05/13 03:20:00;;;;;;;5.37;4.23;;;18.60;53.80;;;;;;5007577;28;20437;-44
2021/05/13 03:22:26;;;;;;;4.47;4.07;;;18.60;53.60;;;;;;5012841;28;20325;-44
2021/05/13 03:24:55;;;;;;;4.30;4.00;;;18.60;53.50;;;;;;5013386;28;20519;-45
2021/05/13 03:29:54;;;;;;;4.97;4.20;;;18.70;53.30;;;;;;5001795;28;20803;-44
2021/05/13 03:32:20;;;;;;;4.80;4.27;;;18.80;53.40;;;;;;5007199;28;20511;-44
2021/05/13 03:34:46;;;;;;;5.07;4.47;;;18.80;53.10;;;;;;5003249;28;20493;-43
2021/05/13 03:37:11;;;;;;;4.23;3.77;;;18.80;53.10;;;;;;5004120;28;20445;-45
2021/05/13 03:39:37;;;;;;;4.40;4.00;;;18.90;53.20;;;;;;5007469;28;20196;-43
2021/05/13 03:42:03;;;;;;;6.90;4.27;;;18.90;53.00;;;;;;5002395;28;20453;-43
2021/05/13 03:44:29;;;;;;;4.30;3.90;;;18.90;52.70;;;;;;5009897;28;20194;-44
2021/05/13 03:46:54;;;;;;;4.10;3.80;;;19.00;52.80;;;;;;5009100;28;20280;-43
2021/05/13 03:49:20;;;;;;;4.90;3.17;;;18.60;52.80;;;;;;5013892;28;20197;-45
2021/05/13 03:51:45;;;;;;;5.90;3.47;;;18.60;53.30;;;;;;5010023;28;20217;-44
2021/05/13 03:54:11;;;;;;;4.23;3.47;;;18.60;53.20;;;;;;5008601;28;20283;-44
2021/05/13 03:56:36;;;;;;;3.60;3.30;;;18.60;53.20;;;;;;5007902;28;20305;-43
2021/05/13 03:59:10;;;;;;;4.57;4.13;;;18.60;53.60;;;;;;4998952;28;20190;-43
2021/05/13 04:04:37;;;;;;;4.37;3.97;;;18.80;52.80;;;;;;4970023;28;20836;-44
2021/05/13 04:07:04;;;;;;;4.20;3.57;;;18.80;53.00;;;;;;4996278;28;20453;-45
2021/05/13 04:09:30;;;;;;;4.33;3.93;;;18.60;53.00;;;;;;5004086;28;20609;-43
2021/05/13 04:11:57;;;;;;;5.90;3.63;;;18.60;53.20;;;;;;5002240;28;20468;-44
2021/05/13 04:14:23;;;;;;;3.70;3.40;;;18.50;53.20;;;;;;5003170;28;20222;-46
2021/05/13 04:16:56;;;;;;;4.33;3.93;;;18.50;53.20;;;;;;5005017;28;21204;-43
2021/05/13 04:19:22;;;;;;;4.00;3.70;;;18.40;53.40;;;;;;5004981;28;20940;-45
2021/05/13 04:21:48;;;;;;;4.00;3.70;;;18.30;53.40;;;;;;5008561;28;20451;-44
2021/05/13 04:24:17;;;;;;;5.87;4.27;;;18.20;53.60;;;;;;5009215;28;20489;-44
2021/05/13 04:26:43;;;;;;;4.23;3.47;;;18.30;54.20;;;;;;5007541;28;20444;-43
2021/05/13 04:29:09;;;;;;;5.83;3.53;;;18.30;54.00;;;;;;5005999;28;20947;-43
2021/05/13 04:31:36;;;;;;;4.63;3.90;;;18.20;53.80;;;;;;5010027;28;20206;-43
2021/05/13 04:34:02;;;;;;;4.63;4.30;;;18.10;54.20;;;;;;5006064;28;20233;-44
2021/05/13 04:36:28;;;;;;;4.57;4.17;;;18.10;54.00;;;;;;5006345;28;20958;-43
2021/05/13 04:38:54;;;;;;;4.27;3.87;;;18.20;54.00;;;;;;5004161;28;20476;-43
2021/05/13 04:41:19;;;;;;;4.90;3.77;;;18.30;53.80;;;;;;5008945;28;20661;-43
2021/05/13 04:43:45;;;;;;;3.90;3.60;;;18.40;53.80;;;;;;5008880;28;20337;-43
2021/05/13 04:46:11;;;;;;;4.60;3.70;;;18.40;53.30;;;;;;5010334;28;20535;-44
2021/05/13 04:49:13;;;;;;;5.17;3.57;;;18.50;53.20;;;;;;5010061;28;20549;-44
2021/05/13 04:51:31;;;;;;;4.50;4.10;;;18.50;53.30;;;;;;5009074;28;20495;-44
2021/05/13 04:53:58;;;;;;;4.83;4.43;;;18.50;53.20;;;;;;5003649;28;20522;-44
2021/05/13 04:56:23;;;;;;;4.40;4.00;;;18.50;53.20;;;;;;5011956;28;20445;-43
2021/05/13 04:58:49;;;;;;;4.80;4.33;;;18.50;53.20;;;;;;5009386;28;20913;-45
2021/05/13 05:01:16;;;;;;;4.50;4.10;;;18.20;53.30;;;;;;5007682;28;20190;-44
2021/05/13 05:03:42;;;;;;;4.73;4.27;;;18.00;54.50;;;;;;5007140;28;20559;-45
2021/05/13 05:06:10;;;;;;;8.60;4.20;;;18.10;54.30;;;;;;5004731;28;20444;-44
2021/05/13 05:08:35;;;;;;;4.00;3.70;;;18.00;54.10;;;;;;5004186;28;20213;-44
2021/05/13 05:11:01;;;;;;;4.63;4.17;;;18.10;54.30;;;;;;5000922;28;20449;-44
2021/05/13 05:13:26;;;;;;;4.70;4.17;;;18.20;53.80;;;;;;5005321;28;20739;-45
2021/05/13 05:15:52;;;;;;;6.30;4.87;;;18.20;53.60;;;;;;5010163;28;20190;-43
2021/05/13 05:18:22;;;;;;;8.00;4.53;;;18.20;53.50;;;;;;5003864;28;20194;-43
2021/05/13 05:20:49;;;;;;;5.90;4.70;;;18.10;53.80;;;;;;5004504;28;20575;-45
2021/05/13 05:23:15;;;;;;;4.97;4.50;;;18.10;54.10;;;;;;5007757;28;20505;-43
2021/05/13 05:25:41;;;;;;;4.63;4.20;;;17.80;54.30;;;;;;5004578;28;20807;-44
2021/05/13 05:28:07;;;;;;;5.47;4.47;;;17.50;55.00;;;;;;5008278;28;20799;-43
2021/05/13 05:30:34;;;;;;;4.43;4.07;;;17.10;56.40;;;;;;5004914;28;20445;-43
2021/05/13 05:33:04;;;;;;;5.67;5.10;;;17.30;56.30;;;;;;5005644;28;20459;-44
2021/05/13 05:35:30;;;;;;;4.40;4.00;;;17.00;57.00;;;;;;5003191;28;20445;-45
2021/05/13 05:37:56;;;;;;;4.73;4.10;;;17.10;57.10;;;;;;5006893;28;20883;-43
2021/05/13 05:40:22;;;;;;;5.30;4.73;;;17.10;57.00;;;;;;5007847;28;20532;-44
2021/05/13 05:42:48;;;;;;;7.10;5.00;;;17.40;56.80;;;;;;5003190;28;20197;-45
2021/05/13 05:45:15;;;;;;;5.77;5.07;;;17.30;57.10;;;;;;5011560;28;20451;-44
2021/05/13 05:47:42;;;;;;;5.03;4.47;;;17.30;56.70;;;;;;5011666;28;20437;-43
2021/05/13 05:50:08;;;;;;;5.80;4.40;;;17.40;56.80;;;;;;5005636;28;20453;-45
2021/05/13 05:52:35;;;;;;;4.97;4.30;;;17.60;56.40;;;;;;5005449;28;20469;-45
2021/05/13 05:55:01;;;;;;;5.37;4.80;;;17.60;56.30;;;;;;4999398;28;20496;-44
2021/05/13 05:57:27;;;;;;;7.63;5.40;;;17.70;56.40;;;;;;5004964;28;20421;-44
2021/05/13 05:59:52;;;;;;;5.83;5.20;;;17.60;56.70;;;;;;5011231;28;20437;-44
2021/05/13 06:02:18;;;;;;;4.60;4.30;;;17.60;56.60;;;;;;5004060;28;20241;-43
2021/05/13 06:04:44;;;;;;;5.90;4.47;;;17.60;56.50;;;;;;5007312;28;20306;-43
2021/05/13 06:07:09;;;;;;;7.80;4.80;;;17.60;56.10;;;;;;5010682;28;20189;-44
2021/05/13 06:09:35;;;;;;;6.10;4.50;;;17.70;56.10;;;;;;5001775;28;20910;-43
2021/05/13 06:12:00;;;;;;;5.93;4.63;;;17.90;55.70;;;;;;5005876;28;20186;-45
2021/05/13 06:14:26;;;;;;;4.83;3.67;;;18.20;55.80;;;;;;4998241;28;20241;-44
2021/05/13 06:19:20;;;;;;;6.80;4.27;;;17.70;56.00;;;;;;5008277;28;20236;-45
2021/05/13 06:21:45;;;;;;;5.90;4.47;;;17.50;56.80;;;;;;5003948;28;20565;-44
2021/05/13 06:24:12;;;;;;;6.20;4.50;;;17.90;56.80;;;;;;5009610;28;20428;-44
2021/05/13 06:26:38;;;;;;;5.27;4.57;;;18.10;55.90;;;;;;5006118;28;20202;-47
2021/05/13 06:29:05;;;;;;;4.00;3.60;;;18.30;56.10;;;;;;5007078;28;20436;-44
2021/05/13 06:31:32;;;;;;;5.03;4.50;;;18.60;56.10;;;;;;5003059;28;20505;-44
2021/05/13 06:33:58;;;;;;;5.07;4.23;;;18.70;54.50;;;;;;5008226;28;20495;-44
2021/05/13 06:36:24;;;;;;;4.00;3.50;;;18.80;54.20;;;;;;5000198;28;20456;-43
2021/05/13 06:38:49;;;;;;;6.67;4.23;;;19.10;54.20;;;;;;5006641;28;20230;-45
2021/05/13 06:41:15;;;;;;;5.20;4.40;;;19.30;53.80;;;;;;5002998;28;20520;-43
2021/05/13 06:43:41;;;;;;;7.10;4.93;;;19.40;53.30;;;;;;5007094;28;20202;-44
2021/05/13 06:46:06;;;;;;;3.90;3.60;;;19.60;52.80;;;;;;5000391;28;20193;-45
2021/05/13 06:48:35;;;;;;;8.80;4.50;;;19.70;52.00;;;;;;5006020;28;20190;-44
2021/05/13 06:51:02;;;;;;;4.50;3.47;;;19.90;51.80;;;;;;5004189;28;20194;-44
2021/05/13 06:53:27;;;;;;;6.30;3.90;;;20.10;51.40;;;;;;4992735;28;20895;-45
2021/05/13 06:55:53;;;;;;;4.27;3.70;;;20.30;50.90;;;;;;4995124;28;20438;-43
2021/05/13 06:58:22;;;;;;;4.90;3.43;;;20.40;51.50;;;;;;5004638;28;20237;-44
2021/05/13 07:00:49;;;;;;;4.40;3.67;;;20.50;50.30;;;;;;5004292;28;20198;-44
2021/05/13 07:03:15;;;;;;;4.03;3.17;;;20.60;51.00;;;;;;5009406;28;20440;-44
2021/05/13 07:05:42;;;;;;;3.90;3.10;;;20.70;49.50;;;;;;5000208;28;20429;-44
2021/05/13 07:08:09;;;;;;;3.50;3.20;;;20.90;48.70;;;;;;5006287;28;20921;-44
2021/05/13 07:10:35;;;;;;;3.43;3.13;;;21.10;48.20;;;;;;4999705;28;20446;-43
2021/05/13 07:13:01;;;;;;;3.47;3.17;;;21.20;48.20;;;;;;4998986;28;20801;-43
2021/05/13 07:15:26;;;;;;;4.73;3.17;;;21.30;47.70;;;;;;4998932;28;20449;-45
2021/05/13 07:22:43;;;;;;;4.10;3.60;;;21.50;47.90;;;;;;5009880;28;20669;-47
2021/05/13 07:25:09;;;;;;;4.27;2.83;;;21.70;48.00;;;;;;5012654;28;20230;-48
2021/05/13 07:27:34;;;;;;;3.73;2.80;;;21.70;47.00;;;;;;5006595;28;20210;-44
2021/05/13 07:30:00;;;;;;;3.00;2.80;;;21.80;47.70;;;;;;5011152;28;20429;-44
2021/05/13 07:32:25;;;;;;;3.20;2.50;;;21.90;47.60;;;;;;5009728;28;20556;-47
2021/05/13 07:34:51;;;;;;;2.93;2.30;;;21.90;47.10;;;;;;5004881;28;20222;-48
2021/05/13 07:37:17;;;;;;;2.67;2.30;;;22.10;46.80;;;;;;4995296;28;20261;-46
2021/05/13 07:39:42;;;;;;;2.37;2.13;;;22.30;45.70;;;;;;5002249;28;20543;-44
2021/05/13 07:42:08;;;;;;;3.03;2.07;;;22.50;46.30;;;;;;5010093;28;20194;-44
2021/05/13 07:44:33;;;;;;;3.93;2.30;;;22.60;46.00;;;;;;5003024;28;20190;-44
2021/05/13 07:46:59;;;;;;;3.07;2.23;;;22.70;44.30;;;;;;5009082;28;20636;-48
2021/05/13 07:49:25;;;;;;;2.87;2.10;;;22.90;44.70;;;;;;4992915;28;20548;-47
2021/05/13 07:51:52;;;;;;;3.50;2.37;;;23.00;44.10;;;;;;5000143;28;20194;-46
2021/05/13 07:54:17;;;;;;;2.63;2.43;;;22.90;41.40;;;;;;5013421;28;20488;-46
2021/05/13 07:56:43;;;;;;;2.13;1.97;;;22.90;41.20;;;;;;5012882;28;20943;-46
2021/05/13 07:59:09;;;;;;;3.40;2.10;;;22.90;42.90;;;;;;5003289;28;20202;-44
2021/05/13 08:01:34;;;;;;;4.30;2.07;;;23.00;43.70;;;;;;5001712;28;20193;-49
2021/05/13 08:04:00;;;;;;;2.93;1.90;;;23.10;43.10;;;;;;5012520;28;20205;-45
2021/05/13 08:06:26;;;;;;;6.17;2.20;;;23.20;42.70;;;;;;4996264;28;20281;-47
2021/05/13 08:08:51;;;;;;;3.90;2.50;;;23.30;43.30;;;;;;4993707;28;20661;-49
2021/05/13 08:11:17;;;;;;;2.67;1.80;;;23.40;42.70;;;;;;4999935;28;20302;-45
2021/05/13 08:13:42;;;;;;;2.90;2.20;;;23.70;42.50;;;;;;4995469;28;20241;-46
2021/05/13 08:16:08;;;;;;;2.43;2.23;;;23.80;41.90;;;;;;5013584;28;20208;-44
2021/05/13 08:18:34;;;;;;;2.30;1.90;;;23.70;39.40;;;;;;5011961;28;20555;-48
2021/05/13 08:21:01;;;;;;;3.30;2.00;;;23.70;40.50;;;;;;4996979;28;20438;-46
2021/05/13 08:23:26;;;;;;;2.50;2.30;;;23.70;39.90;;;;;;4993504;28;20217;-44
2021/05/13 08:25:52;;;;;;;2.60;2.17;;;23.60;40.30;;;;;;4996098;28;20430;-48
2021/05/13 08:28:17;;;;;;;2.70;1.97;;;23.70;40.50;;;;;;4999112;28;20226;-49
2021/05/13 08:30:43;;;;;;;2.23;2.03;;;23.90;41.20;;;;;;5010128;28;20189;-43
2021/05/13 08:33:08;;;;;;;1.60;1.50;;;24.00;39.20;;;;;;5011620;28;20620;-44
2021/05/13 08:35:34;;;;;;;2.57;1.90;;;24.10;39.30;;;;;;5014270;28;20252;-47
2021/05/13 08:38:00;;;;;;;3.70;1.70;;;24.20;38.40;;;;;;5011341;28;20313;-48
2021/05/13 08:40:25;;;;;;;3.27;1.80;;;24.30;38.70;;;;;;5013016;28;20669;-47
2021/05/13 08:42:51;;;;;;;3.40;2.10;;;24.40;39.70;;;;;;5007226;28;20268;-48
2021/05/13 08:45:17;;;;;;;2.70;1.87;;;24.60;39.50;;;;;;5008388;28;20356;-44
2021/05/13 08:47:46;;;;;;;3.53;2.17;;;24.60;39.10;;;;;;5018245;28;20286;-44
2021/05/13 08:50:19;;;;;;;3.90;1.73;;;24.80;37.40;;;;;;4999964;28;20433;-44
2021/05/13 08:52:45;;;;;;;2.90;1.70;;;24.80;37.40;;;;;;5012706;28;20510;-44
2021/05/13 08:55:12;;;;;;;2.40;1.90;;;24.90;37.40;;;;;;5008589;28;20504;-46
2021/05/13 08:57:38;;;;;;;2.70;1.80;;;25.00;36.70;;;;;;5012641;28;20433;-44
2021/05/13 09:00:06;;;;;;;2.00;1.60;;;25.10;37.10;;;;;;5010301;28;20437;-47
2021/05/13 09:02:32;;;;;;;1.80;1.60;;;25.20;38.00;;;;;;5011396;28;20653;-44
2021/05/13 09:04:59;;;;;;;2.67;2.00;;;25.20;37.70;;;;;;5011881;28;20451;-47
2021/05/13 09:07:27;;;;;;;3.33;1.60;;;25.30;38.70;;;;;;5018085;28;20194;-45
2021/05/13 09:09:57;;;;;;;3.57;1.87;;;25.40;37.60;;;;;;5006558;28;20527;-47
2021/05/13 09:12:25;;;;;;;2.47;1.90;;;25.50;37.20;;;;;;5016865;28;20440;-45
2021/05/13 09:14:59;;;;;;;2.67;1.90;;;25.50;36.90;;;;;;5006101;28;20980;-47
2021/05/13 09:17:26;;;;;;;3.43;1.97;;;25.40;36.50;;;;;;5008662;28;20452;-45
2021/05/13 09:19:52;;;;;;;2.27;1.80;;;25.40;37.10;;;;;;5022957;28;20456;-43
2021/05/13 09:22:26;;;;;;;2.50;1.57;;;25.40;37.20;;;;;;5017188;28;20437;-43
2021/05/13 09:25:04;;;;;;;2.23;2.03;;;25.50;37.80;;;;;;5016144;28;20932;-46
2021/05/13 09:27:54;;;;;;;3.17;1.80;;;25.60;35.90;;;;;;5014161;28;20501;-43
2021/05/13 09:30:23;;;;;;;2.37;2.17;;;25.60;35.60;;;;;;5013928;28;20491;-42
2021/05/13 09:32:54;;;;;;;1.87;1.60;;;25.80;35.20;;;;;;5016457;28;20583;-42
2021/05/13 09:35:26;;;;;;;2.73;1.50;;;25.90;34.80;;;;;;5006589;28;20501;-43
2021/05/13 09:37:55;;;;;;;1.80;1.40;;;26.20;34.30;;;;;;5011632;28;20474;-46
2021/05/13 09:40:52;;;;;;;5.17;1.77;;;26.40;36.10;;;;;;5011182;28;20441;-47
2021/05/13 09:43:20;;;;;;;1.63;1.53;;;26.50;33.20;;;;;;5004253;28;20441;-43
2021/05/13 09:45:49;;;;;;;3.23;2.70;;;26.60;33.00;;;;;;5011303;28;20494;-44
2021/05/13 09:48:44;;;;;;;1.73;1.33;;;26.80;35.00;;;;;;5010738;28;20475;-44
2021/05/13 09:51:25;;;;;;;2.97;1.23;;;27.00;31.30;;;;;;5009702;28;20449;-44
2021/05/13 09:54:05;;;;;;;2.20;1.20;;;26.90;31.70;;;;;;5009920;28;20539;-44
2021/05/13 09:56:32;;;;;;;3.13;1.40;;;26.80;30.60;;;;;;5005543;28;20476;-45
2021/05/13 09:58:57;;;;;;;1.20;1.10;;;26.70;30.60;;;;;;5001158;28;20437;-43
2021/05/13 10:01:35;;;;;;;4.37;1.30;;;26.60;31.50;;;;;;5010069;28;20436;-46
2021/05/13 10:04:01;;;;;;;1.93;1.03;;;26.60;31.70;;;;;;5002604;28;20201;-44
2021/05/13 10:06:27;;;;;;;1.43;1.00;;;26.70;31.60;;;;;;5011824;28;20429;-46
2021/05/13 10:08:52;;;;;;;2.50;1.37;;;26.60;31.20;;;;;;5011214;28;20452;-43
2021/05/13 10:11:19;;;;;;;1.67;1.13;;;26.70;32.10;;;;;;5006247;28;20203;-42
2021/05/13 10:13:44;;;;;;;3.60;1.20;;;26.70;31.20;;;;;;5007821;28;20237;-43
2021/05/13 10:16:10;;;;;;;2.50;1.10;;;26.60;30.70;;;;;;5015527;28;20442;-43
2021/05/13 10:18:42;;;;;;;5.00;1.80;;;26.50;31.50;;;;;;5008678;28;20206;-43
2021/05/13 10:21:14;;;;;;;4.80;1.50;;;26.30;31.60;;;;;;5011002;28;20851;-42
2021/05/13 10:23:42;;;;;;;1.50;1.10;;;26.10;30.30;;;;;;4994543;28;20439;-43
2021/05/13 10:26:16;;;;;;;4.83;1.47;;;26.10;31.60;;;;;;5009425;28;21059;-43
2021/05/13 10:28:42;;;;;;;2.67;1.50;;;26.00;31.70;;;;;;5004368;28;20444;-43
2021/05/13 10:31:07;;;;;;;6.47;1.80;;;25.90;31.70;;;;;;5004987;28;20773;-43
2021/05/13 10:33:50;;;;;;;4.70;1.60;;;26.00;32.80;;;;;;4992399;28;20253;-43
2021/05/13 10:36:17;;;;;;;2.27;1.40;;;26.00;32.20;;;;;;5011207;28;20260;-43
2021/05/13 10:38:49;;;;;;;2.90;1.20;;;25.90;31.80;;;;;;5008562;28;20560;-43
2021/05/13 10:41:30;;;;;;;2.43;1.57;;;25.60;32.40;;;;;;5003182;28;20452;-43
2021/05/13 10:43:58;;;;;;;6.00;1.87;;;25.60;32.20;;;;;;5007326;28;20535;-45
2021/05/13 10:46:28;;;;;;;2.07;1.20;;;25.80;33.00;;;;;;4994452;28;20448;-43
2021/05/13 10:49:16;;;;;;;2.30;2.00;;;26.00;33.40;;;;;;5004231;28;20473;-44
2021/05/13 10:51:46;;;;;;;2.90;1.37;;;26.10;33.00;;;;;;4999478;28;20444;-43
2021/05/13 10:54:45;;;;;;;1.43;1.33;;;26.00;31.90;;;;;;4990702;28;20488;-43
2021/05/13 10:57:20;;;;;;;2.37;1.50;;;25.60;32.70;;;;;;4980798;28;20465;-43
2021/05/13 11:00:04;;;;;;;4.40;1.47;;;25.40;32.30;;;;;;5009209;28;20455;-45
2021/05/13 11:02:37;;;;;;;2.87;1.00;;;25.40;32.30;;;;;;5009074;28;20444;-43
2021/05/13 11:05:49;;;;;;;1.77;1.33;;;25.30;32.10;;;;;;4999018;28;20517;-43
2021/05/13 11:08:17;;;;;;;4.03;1.50;;;25.20;33.00;;;;;;5007092;28;20776;-42
2021/05/13 11:10:49;;;;;;;2.50;1.30;;;25.30;33.20;;;;;;5006037;28;21043;-44
2021/05/13 11:13:16;;;;;;;2.40;1.10;;;25.20;32.80;;;;;;5001074;28;20440;-43
2021/05/13 11:15:44;;;;;;;2.10;1.20;;;24.80;31.80;;;;;;5002050;28;20453;-44
2021/05/13 11:18:13;;;;;;;1.90;1.40;;;24.50;32.50;;;;;;4992463;28;20453;-43
2021/05/13 11:20:44;;;;;;;3.10;1.40;;;24.40;33.90;;;;;;5009197;28;20495;-44
2021/05/13 11:23:17;;;;;;;3.57;1.67;;;24.40;34.30;;;;;;5011444;28;20986;-43
2021/05/13 11:25:54;;;;;;;2.70;1.20;;;24.20;34.10;;;;;;5010009;28;20445;-42
2021/05/13 11:28:26;;;;;;;3.67;1.50;;;24.30;34.20;;;;;;4996343;28;20429;-43
2021/05/13 11:31:08;;;;;;;2.50;1.40;;;24.30;35.20;;;;;;5009883;28;20442;-43
2021/05/13 11:33:57;;;;;;;3.30;1.47;;;24.60;35.30;;;;;;4996898;28;20603;-43
2021/05/13 11:36:40;;;;;;;2.13;1.30;;;24.60;35.30;;;;;;5012151;28;20528;-43
2021/05/13 11:39:12;;;;;;;2.50;1.40;;;24.80;34.80;;;;;;4999247;28;20480;-43
2021/05/13 11:41:42;;;;;;;2.60;1.37;;;24.50;34.60;;;;;;5003503;28;20455;-43
2021/05/13 11:44:08;;;;;;;2.30;1.43;;;24.60;36.00;;;;;;5005979;28;20429;-45
2021/05/13 11:46:36;;;;;;;3.27;2.00;;;24.90;37.00;;;;;;5016317;28;20493;-43
2021/05/13 11:49:03;;;;;;;3.37;1.97;;;25.00;35.70;;;;;;5009047;28;20501;-43
2021/05/13 11:51:33;;;;;;;2.13;1.70;;;24.90;34.80;;;;;;5011127;28;20452;-45
2021/05/13 11:54:05;;;;;;;2.10;1.63;;;24.80;35.90;;;;;;5006043;28;20488;-43
2021/05/13 11:56:33;;;;;;;2.30;2.07;;;24.90;36.80;;;;;;5014668;28;20433;-42
2021/05/13 11:59:09;;;;;;;2.33;1.90;;;24.80;36.80;;;;;;5007868;28;20474;-43
2021/05/13 12:01:39;;;;;;;2.80;1.30;;;24.70;37.00;;;;;;5016089;28;20442;-47
2021/05/13 12:04:12;;;;;;;2.70;1.83;;;24.90;37.10;;;;;;5009732;28;20440;-45
2021/05/13 12:06:47;;;;;;;2.30;1.87;;;24.90;37.40;;;;;;5001472;28;20991;-44
2021/05/13 12:09:16;;;;;;;1.97;1.70;;;24.90;36.70;;;;;;5008485;28;21305;-45
2021/05/13 12:11:42;;;;;;;3.00;1.60;;;24.40;37.10;;;;;;5015124;28;20975;-45
2021/05/13 12:14:15;;;;;;;2.30;1.50;;;24.30;38.00;;;;;;5022394;28;20487;-45
2021/05/13 12:16:42;;;;;;;4.33;1.50;;;24.30;38.30;;;;;;5007825;28;20789;-45
2021/05/13 12:19:12;;;;;;;3.10;1.60;;;24.50;38.20;;;;;;5010420;28;20437;-45
2021/05/13 12:21:39;;;;;;;1.40;1.20;;;24.60;37.30;;;;;;5018094;28;20436;-45
2021/05/13 12:24:06;;;;;;;1.63;1.30;;;24.50;37.20;;;;;;5021599;28;20471;-45
2021/05/13 12:26:34;;;;;;;2.37;1.40;;;24.60;37.00;;;;;;5021161;28;20428;-44
2021/05/13 12:29:02;;;;;;;3.43;1.53;;;24.30;36.40;;;;;;5020221;28;20438;-46
2021/05/13 12:31:32;;;;;;;2.90;1.40;;;24.10;37.50;;;;;;5008598;28;20449;-45
2021/05/13 12:34:03;;;;;;;2.57;1.80;;;24.10;37.10;;;;;;5009654;28;20497;-45
2021/05/13 12:36:28;;;;;;;4.77;1.70;;;24.10;37.00;;;;;;5012307;28;20436;-45
2021/05/13 12:38:55;;;;;;;5.53;1.57;;;23.90;37.60;;;;;;5006509;28;20472;-45
2021/05/13 12:41:25;;;;;;;3.70;1.37;;;24.00;38.00;;;;;;5012587;28;20204;-47
2021/05/13 12:44:04;;;;;;;1.57;1.47;;;24.20;36.80;;;;;;5002682;28;20437;-45
2021/05/13 12:46:29;;;;;;;2.90;1.50;;;24.20;37.60;;;;;;5012680;28;20441;-45
2021/05/13 12:48:55;;;;;;;3.10;1.57;;;24.50;37.70;;;;;;5011719;28;21031;-45
2021/05/13 12:51:23;;;;;;;1.93;1.50;;;24.80;36.10;;;;;;5011846;28;20921;-49
2021/05/13 12:53:54;;;;;;;2.73;1.97;;;24.60;35.70;;;;;;5010524;28;20693;-46
2021/05/13 12:56:34;;;;;;;2.70;1.47;;;24.80;33.50;;;;;;5004925;28;20568;-48
2021/05/13 12:59:12;;;;;;;1.33;1.23;;;24.80;33.60;;;;;;5011913;28;20990;-45
2021/05/13 13:01:40;;;;;;;2.80;1.50;;;24.60;33.00;;;;;;5013546;28;20437;-45
2021/05/13 13:04:07;;;;;;;1.57;1.20;;;24.80;34.70;;;;;;5007871;28;20546;-48
2021/05/13 13:06:53;;;;;;;3.23;1.73;;;24.90;34.60;;;;;;5001053;28;20443;-45
2021/05/13 13:09:35;;;;;;;2.80;1.37;;;25.00;35.40;;;;;;5012337;28;20453;-49
2021/05/13 13:12:20;;;;;;;2.10;1.23;;;25.00;35.50;;;;;;5009256;28;20874;-46
2021/05/13 13:14:47;;;;;;;2.20;1.20;;;25.00;34.90;;;;;;5007227;28;20495;-49